createdAt,value
2023-04-30T00:01:22.446Z,79.89
2023-04-30T00:03:49.097Z,80.66
2023-04-30T00:06:16.121Z,79.73
2023-04-30T00:08:42.678Z,78.58
2023-04-30T00:11:09.288Z,79.07
2023-04-30T00:13:35.901Z,79.16
2023-04-30T00:16:02.492Z,79.57
2023-04-30T00:18:29.036Z,79.61
2023-04-30T00:20:55.718Z,80.26
2023-04-30T00:23:22.264Z,80.39
2023-04-30T00:25:48.951Z,81.25
2023-04-30T00:28:15.512Z,81.65
2023-04-30T00:30:42.181Z,82.75
2023-04-30T00:33:08.801Z,83.70
2023-04-30T00:35:35.498Z,83.77
2023-04-30T00:38:02.093Z,84.41
2023-04-30T00:40:28.918Z,84.20
2023-04-30T00:42:55.980Z,83.90
2023-04-30T00:45:23.484Z,85.11
2023-04-30T00:47:50.293Z,85.19
2023-04-30T00:50:17.021Z,86.19
2023-04-30T00:52:44.447Z,86.39
2023-04-30T00:55:14.626Z,86.40
2023-04-30T00:57:41.317Z,87.24
2023-04-30T01:00:11.481Z,86.82
2023-04-30T01:02:38.551Z,86.71
2023-04-30T01:05:06.198Z,87.28
2023-04-30T01:07:34.788Z,87.52
2023-04-30T01:10:02.443Z,87.53
2023-04-30T01:12:44.702Z,87.83
2023-04-30T01:15:19.210Z,87.12
2023-04-30T01:17:56.694Z,87.23
2023-04-30T01:20:24.741Z,87.99
2023-04-30T01:22:51.480Z,88.78
2023-04-30T01:25:36.523Z,88.75
2023-04-30T01:28:09.784Z,89.32
2023-04-30T01:30:38.155Z,89.45
2023-04-30T01:33:04.874Z,88.29
2023-04-30T01:35:41.899Z,89.21
2023-04-30T01:38:19.953Z,90.37
2023-04-30T01:41:17.457Z,90.57
2023-04-30T01:44:02.668Z,90.97
2023-04-30T01:46:31.142Z,91.16
2023-04-30T01:49:46.616Z,90.73
2023-04-30T01:52:20.904Z,90.04
2023-04-30T01:55:01.216Z,90.46
2023-04-30T01:58:07.381Z,90.38
2023-04-30T02:00:34.015Z,90.94
2023-04-30T02:03:00.755Z,90.67
2023-04-30T02:05:27.497Z,91.82
2023-04-30T02:07:54.101Z,92.61
2023-04-30T02:10:25.721Z,93.01
2023-04-30T02:12:53.312Z,93.00
2023-04-30T02:15:19.935Z,92.87
2023-04-30T02:17:46.821Z,91.86
2023-04-30T02:20:13.784Z,91.92
2023-04-30T02:22:40.606Z,91.59
2023-04-30T02:25:07.545Z,91.23
2023-04-30T02:27:35.488Z,90.96
2023-04-30T02:30:02.568Z,91.03
2023-04-30T02:32:29.630Z,91.33
2023-04-30T02:34:56.500Z,90.80
2023-04-30T02:37:23.463Z,90.90
2023-04-30T02:39:51.445Z,90.19
2023-04-30T02:42:18.057Z,90.27
2023-04-30T02:44:44.708Z,90.33
2023-04-30T02:47:11.339Z,89.38
2023-04-30T02:49:37.918Z,88.76
2023-04-30T02:52:04.627Z,88.52
2023-04-30T02:54:31.183Z,88.73
2023-04-30T02:56:57.702Z,88.29
2023-04-30T02:59:24.463Z,88.49
2023-04-30T03:01:51.117Z,88.32
2023-04-30T03:04:17.745Z,88.20
2023-04-30T03:06:44.482Z,88.23
2023-04-30T03:09:11.132Z,88.36
2023-04-30T03:11:37.897Z,88.49
2023-04-30T03:14:07.839Z,88.60
2023-04-30T03:16:34.601Z,88.50
2023-04-30T03:19:01.231Z,88.22
2023-04-30T03:21:27.768Z,87.81
2023-04-30T03:23:54.304Z,88.20
2023-04-30T03:26:21.260Z,88.23
2023-04-30T03:28:47.914Z,87.96
2023-04-30T03:31:14.689Z,88.31
2023-04-30T03:33:41.357Z,88.32
2023-04-30T03:36:08.011Z,87.95
2023-04-30T03:38:34.576Z,88.38
2023-04-30T03:41:01.139Z,88.99
2023-04-30T03:43:27.700Z,89.53
2023-04-30T03:45:54.329Z,89.16
2023-04-30T03:48:21.424Z,89.62
2023-04-30T03:50:48.108Z,89.55
2023-04-30T03:53:14.696Z,89.75
2023-04-30T03:55:41.722Z,90.12
2023-04-30T03:58:08.394Z,89.85
2023-04-30T04:00:35.107Z,90.28
2023-04-30T04:03:01.793Z,90.73
2023-04-30T04:05:29.273Z,90.98
2023-04-30T04:07:55.895Z,91.03
2023-04-30T04:10:22.493Z,90.88
2023-04-30T04:12:49.154Z,91.34
2023-04-30T04:15:15.730Z,91.65
2023-04-30T04:17:42.300Z,91.70
2023-04-30T04:20:10.523Z,91.62
2023-04-30T04:22:38.094Z,92.14
2023-04-30T04:25:04.936Z,92.31
2023-04-30T04:27:31.490Z,92.22
2023-04-30T04:29:58.138Z,91.84
2023-04-30T04:32:24.784Z,91.84
2023-04-30T04:34:54.245Z,91.49
2023-04-30T04:37:20.855Z,91.30
2023-04-30T04:39:47.434Z,90.80
2023-04-30T04:42:16.594Z,90.27
2023-04-30T04:44:43.921Z,90.13
2023-04-30T04:47:12.669Z,89.35
2023-04-30T04:49:39.259Z,89.30
2023-04-30T04:52:06.514Z,89.83
2023-04-30T04:54:33.583Z,90.12
2023-04-30T04:57:00.192Z,90.40
2023-04-30T04:59:26.846Z,90.04
2023-04-30T05:01:53.617Z,90.04
2023-04-30T05:04:20.290Z,90.39
2023-04-30T05:06:47.005Z,91.30
2023-04-30T05:09:13.752Z,90.78
2023-04-30T05:11:41.677Z,91.18
2023-04-30T05:14:08.298Z,90.25
2023-04-30T05:16:34.926Z,89.55
2023-04-30T05:19:01.549Z,89.14
2023-04-30T05:21:29.790Z,88.37
2023-04-30T05:23:56.418Z,88.32
2023-04-30T05:26:24.440Z,87.96
2023-04-30T05:28:52.457Z,87.27
2023-04-30T05:31:20.908Z,87.03
2023-04-30T05:33:47.864Z,86.16
2023-04-30T05:36:14.691Z,84.60
2023-04-30T05:38:41.583Z,84.67
2023-04-30T05:41:10.669Z,84.61
2023-04-30T05:43:37.229Z,83.79
2023-04-30T05:46:04.126Z,84.10
2023-04-30T05:48:30.996Z,84.82
2023-04-30T05:50:57.572Z,85.07
2023-04-30T05:53:24.359Z,84.16
2023-04-30T05:55:51.193Z,82.11
2023-04-30T05:58:17.734Z,83.48
2023-04-30T06:00:44.373Z,83.37
2023-04-30T06:03:11.098Z,81.43
2023-04-30T06:05:37.859Z,80.00
2023-04-30T06:08:04.623Z,80.37
2023-04-30T06:10:31.296Z,80.31
2023-04-30T06:12:57.996Z,80.61
2023-04-30T06:15:24.635Z,80.86
2023-04-30T06:17:51.292Z,80.90
2023-04-30T06:20:18.098Z,80.01
2023-04-30T06:22:44.629Z,79.35
2023-04-30T06:25:11.213Z,79.00
2023-04-30T06:27:37.776Z,78.96
2023-04-30T06:30:04.747Z,79.92
2023-04-30T06:32:31.380Z,79.39
2023-04-30T06:34:58.039Z,80.16
2023-04-30T06:37:24.578Z,76.27
2023-04-30T06:39:51.785Z,77.92
2023-04-30T06:42:18.360Z,75.29
2023-04-30T06:44:45.720Z,73.96
2023-04-30T06:47:12.261Z,73.95
2023-04-30T06:49:38.882Z,72.72
2023-04-30T06:52:05.467Z,69.84
2023-04-30T06:54:32.051Z,70.82
2023-04-30T06:56:58.605Z,70.00
2023-04-30T06:59:25.172Z,67.98
2023-04-30T07:01:51.779Z,68.71
2023-04-30T07:04:18.978Z,64.96
2023-04-30T07:06:45.636Z,66.06
2023-04-30T07:09:12.944Z,63.28
2023-04-30T07:11:40.036Z,65.08
2023-04-30T07:14:06.701Z,64.00
2023-04-30T07:16:33.537Z,63.11
2023-04-30T07:19:00.309Z,62.26
2023-04-30T07:21:27.598Z,61.29
2023-04-30T07:23:54.517Z,62.51
2023-04-30T07:26:21.272Z,60.61
2023-04-30T07:28:48.789Z,61.49
2023-04-30T07:31:15.362Z,60.72
2023-04-30T07:33:42.473Z,59.78
2023-04-30T07:36:09.106Z,58.96
2023-04-30T07:38:35.670Z,60.12
2023-04-30T07:41:02.991Z,59.70
2023-04-30T07:43:30.623Z,60.04
2023-04-30T07:45:58.439Z,58.25
2023-04-30T07:48:25.040Z,58.80
2023-04-30T07:50:52.882Z,57.50
2023-04-30T07:53:19.864Z,57.22
2023-04-30T07:55:46.636Z,58.91
2023-04-30T07:58:13.228Z,56.76
2023-04-30T08:00:39.819Z,56.64
2023-04-30T08:03:06.629Z,55.29
2023-04-30T08:05:33.405Z,55.70
2023-04-30T08:08:00.862Z,57.45
2023-04-30T08:10:28.279Z,57.09
2023-04-30T08:12:55.034Z,57.39
2023-04-30T08:15:21.992Z,57.10
2023-04-30T08:17:52.044Z,54.38
2023-04-30T08:20:19.055Z,56.10
2023-04-30T08:22:46.481Z,54.67
2023-04-30T08:25:13.248Z,56.12
2023-04-30T08:27:40.153Z,55.08
2023-04-30T08:30:07.744Z,53.28
2023-04-30T08:32:38.073Z,51.99
2023-04-30T08:35:05.647Z,52.93
2023-04-30T08:37:32.406Z,54.51
2023-04-30T08:39:59.935Z,52.92
2023-04-30T08:42:35.936Z,53.36
2023-04-30T08:45:03.763Z,53.00
2023-04-30T08:47:30.983Z,52.33
2023-04-30T08:49:57.675Z,51.90
2023-04-30T08:52:27.004Z,48.34
2023-04-30T08:54:55.049Z,49.31
2023-04-30T08:57:21.714Z,49.13
2023-04-30T08:59:48.348Z,50.76
2023-04-30T09:02:14.916Z,50.02
2023-04-30T09:04:41.511Z,50.15
2023-04-30T09:09:39.488Z,48.67
2023-04-30T09:12:20.113Z,48.37
2023-04-30T09:15:01.632Z,47.89
2023-04-30T09:17:28.722Z,46.25
2023-04-30T09:20:06.785Z,44.61
2023-04-30T09:22:33.361Z,46.41
2023-04-30T09:24:59.917Z,43.02
2023-04-30T09:27:27.116Z,43.81
2023-04-30T09:29:53.787Z,46.46
2023-04-30T09:32:20.948Z,46.24
2023-04-30T09:34:47.879Z,44.89
2023-04-30T09:37:15.911Z,43.36
2023-04-30T09:39:55.148Z,42.43
2023-04-30T09:42:22.493Z,40.73
2023-04-30T09:44:49.212Z,43.36
2023-04-30T09:47:20.404Z,42.05
2023-04-30T09:49:54.804Z,42.43
2023-04-30T09:52:21.784Z,41.49
2023-04-30T09:54:48.623Z,42.32
2023-04-30T09:57:16.328Z,43.54
2023-04-30T09:59:47.182Z,41.23
2023-04-30T10:02:20.181Z,40.64
2023-04-30T10:04:53.912Z,42.26
2023-04-30T10:07:22.662Z,42.39
2023-04-30T10:09:53.659Z,38.90
2023-04-30T10:12:43.220Z,37.88
2023-04-30T10:15:20.758Z,39.59
2023-04-30T10:17:53.336Z,39.87
2023-04-30T10:20:22.020Z,40.00
2023-04-30T10:22:48.987Z,40.03
2023-04-30T10:25:16.888Z,38.80
2023-04-30T10:27:43.459Z,40.96
2023-04-30T10:30:11.431Z,41.55
2023-04-30T10:32:49.819Z,40.45
2023-04-30T10:35:24.393Z,39.96
2023-04-30T10:37:54.351Z,41.34
2023-04-30T10:40:20.956Z,40.97
2023-04-30T10:42:49.621Z,38.63
2023-04-30T10:45:16.678Z,39.12
2023-04-30T10:47:45.838Z,37.23
2023-04-30T10:50:13.328Z,37.41
2023-04-30T10:52:39.994Z,38.88
2023-04-30T10:55:08.630Z,37.33
2023-04-30T10:57:46.616Z,37.66
2023-04-30T11:00:14.499Z,38.93
2023-04-30T11:02:48.761Z,35.25
2023-04-30T11:05:19.581Z,37.44
2023-04-30T11:07:48.844Z,37.86
2023-04-30T11:10:16.034Z,38.39
2023-04-30T11:12:48.943Z,38.82
2023-04-30T11:15:18.614Z,38.51
2023-04-30T11:17:49.070Z,39.65
2023-04-30T11:20:25.633Z,36.81
2023-04-30T11:23:11.569Z,37.55
2023-04-30T11:25:48.310Z,37.60
2023-04-30T11:28:18.285Z,36.99
2023-04-30T11:30:55.530Z,35.93
2023-04-30T11:33:23.816Z,37.34
2023-04-30T11:35:53.747Z,36.46
2023-04-30T11:38:27.866Z,40.29
2023-04-30T11:40:55.106Z,35.07
2023-04-30T11:43:29.702Z,37.34
2023-04-30T11:46:01.886Z,36.79
2023-04-30T11:48:33.455Z,38.57
2023-04-30T11:51:02.609Z,38.14
2023-04-30T11:53:32.945Z,35.80
2023-04-30T11:56:03.737Z,35.78
2023-04-30T11:58:34.441Z,35.03
2023-04-30T12:01:01.579Z,36.00
2023-04-30T12:03:29.351Z,35.52
2023-04-30T12:05:56.173Z,35.17
2023-04-30T12:08:23.723Z,36.41
2023-04-30T12:10:50.312Z,36.00
2023-04-30T12:13:16.871Z,36.43
2023-04-30T12:15:43.582Z,37.23
2023-04-30T12:18:14.088Z,38.08
2023-04-30T12:20:42.236Z,35.95
2023-04-30T12:23:09.406Z,35.14
2023-04-30T12:25:45.731Z,33.56
2023-04-30T12:28:12.605Z,34.83
2023-04-30T12:30:39.363Z,36.25
2023-04-30T12:33:06.194Z,37.17
2023-04-30T12:35:32.846Z,35.79
2023-04-30T12:38:07.416Z,35.08
2023-04-30T12:40:34.462Z,36.94
2023-04-30T12:43:05.679Z,35.11
2023-04-30T12:45:52.944Z,35.03
2023-04-30T12:48:25.027Z,35.29
2023-04-30T12:50:54.860Z,34.71
2023-04-30T12:53:22.394Z,34.06
2023-04-30T12:56:27.648Z,34.31
2023-04-30T12:58:55.662Z,33.84
2023-04-30T13:01:24.451Z,34.14
2023-04-30T13:03:52.683Z,34.33
2023-04-30T13:06:21.745Z,35.34
2023-04-30T13:08:57.956Z,35.21
2023-04-30T13:11:26.984Z,37.87
2023-04-30T13:13:55.748Z,33.85
2023-04-30T13:16:24.709Z,33.95
2023-04-30T13:18:52.055Z,34.84
2023-04-30T13:21:18.661Z,34.31
2023-04-30T13:23:52.562Z,34.70
2023-04-30T13:26:22.189Z,35.05
2023-04-30T13:28:48.752Z,35.79
2023-04-30T13:31:15.801Z,36.06
2023-04-30T13:33:42.514Z,35.07
2023-04-30T13:36:09.101Z,34.66
2023-04-30T13:38:35.695Z,34.22
2023-04-30T13:41:02.225Z,35.19
2023-04-30T13:43:28.840Z,35.90
2023-04-30T13:45:55.483Z,35.26
2023-04-30T13:48:22.097Z,36.08
2023-04-30T13:50:48.858Z,35.82
2023-04-30T13:53:16.121Z,35.49
2023-04-30T13:55:42.932Z,35.79
2023-04-30T13:58:09.602Z,34.80
2023-04-30T14:00:36.148Z,35.02
2023-04-30T14:03:03.238Z,35.32
2023-04-30T14:05:31.053Z,34.42
2023-04-30T14:07:57.592Z,35.96
2023-04-30T14:10:24.153Z,36.46
2023-04-30T14:12:51.233Z,35.58
2023-04-30T14:15:17.917Z,35.43
2023-04-30T14:17:44.561Z,36.10
2023-04-30T14:20:12.163Z,36.44
2023-04-30T14:22:38.791Z,37.08
2023-04-30T14:25:05.969Z,36.63
2023-04-30T14:27:32.689Z,34.53
2023-04-30T14:29:59.260Z,30.33
2023-04-30T14:32:27.015Z,31.95
2023-04-30T14:34:53.977Z,32.57
2023-04-30T14:37:20.567Z,29.12
2023-04-30T14:39:47.132Z,30.59
2023-04-30T14:42:13.683Z,29.75
2023-04-30T14:44:40.689Z,30.90
2023-04-30T14:47:07.764Z,31.33
2023-04-30T14:49:34.474Z,28.71
2023-04-30T14:52:01.093Z,29.47
2023-04-30T14:54:27.672Z,27.58
2023-04-30T14:56:54.241Z,26.39
2023-04-30T14:59:20.886Z,25.74
2023-04-30T15:01:47.456Z,25.55
2023-04-30T15:04:14.075Z,27.07
2023-04-30T15:06:40.711Z,27.75
2023-04-30T15:09:07.561Z,27.25
2023-04-30T15:11:34.179Z,28.79
2023-04-30T15:14:00.765Z,28.07
2023-04-30T15:16:27.602Z,30.54
2023-04-30T15:18:54.299Z,31.91
2023-04-30T15:21:20.924Z,34.47
2023-04-30T15:23:47.742Z,36.22
2023-04-30T15:26:14.502Z,36.89
2023-04-30T15:28:41.122Z,38.95
2023-04-30T15:31:07.753Z,38.93
2023-04-30T15:33:39.533Z,40.19
2023-04-30T15:36:06.604Z,40.49
2023-04-30T15:38:33.288Z,40.96
2023-04-30T15:40:59.901Z,41.12
2023-04-30T15:43:26.470Z,41.89
2023-04-30T15:45:53.269Z,42.56
2023-04-30T15:48:19.876Z,43.67
2023-04-30T15:50:46.428Z,44.50
2023-04-30T15:53:12.998Z,45.29
2023-04-30T15:55:39.679Z,44.74
2023-04-30T15:58:06.326Z,44.99
2023-04-30T16:00:33.686Z,46.81
2023-04-30T16:03:00.613Z,47.01
2023-04-30T16:05:27.481Z,47.13
2023-04-30T16:07:54.613Z,48.66
2023-04-30T16:10:21.624Z,49.14
2023-04-30T16:12:48.671Z,49.05
2023-04-30T16:15:15.396Z,49.71
2023-04-30T16:17:42.038Z,49.24
2023-04-30T16:20:09.060Z,50.35
2023-04-30T16:22:35.704Z,50.65
2023-04-30T16:25:02.342Z,51.74
2023-04-30T16:27:29.591Z,52.67
2023-04-30T16:29:56.514Z,52.63
2023-04-30T16:32:23.424Z,53.14
2023-04-30T16:34:49.978Z,52.23
2023-04-30T16:37:16.548Z,52.79
2023-04-30T16:39:43.107Z,55.95
2023-04-30T16:42:09.885Z,56.65
2023-04-30T16:44:36.974Z,59.47
2023-04-30T16:47:03.500Z,59.02
2023-04-30T16:49:30.105Z,57.99
2023-04-30T16:51:56.882Z,58.49
2023-04-30T16:54:23.725Z,60.02
2023-04-30T16:56:50.384Z,59.62
2023-04-30T16:59:16.949Z,59.09
2023-04-30T17:01:43.659Z,59.84
2023-04-30T17:04:12.022Z,61.07
2023-04-30T17:06:39.369Z,60.78
2023-04-30T17:09:06.626Z,59.42
2023-04-30T17:11:34.087Z,61.33
2023-04-30T17:14:01.160Z,61.63
2023-04-30T17:16:27.969Z,61.88
2023-04-30T17:18:54.664Z,63.52
2023-04-30T17:21:21.333Z,63.26
2023-04-30T17:23:48.148Z,65.07
2023-04-30T17:26:14.732Z,67.32
2023-04-30T17:28:41.359Z,66.76
2023-04-30T17:31:09.391Z,67.18
2023-04-30T17:33:36.114Z,71.70
2023-04-30T17:36:03.916Z,69.99
2023-04-30T17:38:30.594Z,72.17
2023-04-30T17:40:57.751Z,71.28
2023-04-30T17:43:24.588Z,72.11
2023-04-30T17:45:52.043Z,69.89
2023-04-30T17:48:19.561Z,72.65
2023-04-30T17:50:46.351Z,75.86
2023-04-30T17:53:12.947Z,74.76
2023-04-30T17:55:39.793Z,75.03
2023-04-30T17:58:10.062Z,74.44
2023-04-30T18:00:39.432Z,75.60
2023-04-30T18:03:06.635Z,74.29
2023-04-30T18:05:35.593Z,75.89
2023-04-30T18:08:02.799Z,74.40
2023-04-30T18:10:29.376Z,75.13
2023-04-30T18:12:58.937Z,74.92
2023-04-30T18:15:26.057Z,75.55
2023-04-30T18:17:53.215Z,75.56
2023-04-30T18:20:21.023Z,75.27
2023-04-30T18:22:47.856Z,74.36
2023-04-30T18:25:16.423Z,76.75
2023-04-30T18:27:43.088Z,77.61
2023-04-30T18:30:10.420Z,78.35
2023-04-30T18:32:37.594Z,78.37
2023-04-30T18:35:04.766Z,78.46
2023-04-30T18:37:31.945Z,77.64
2023-04-30T18:39:59.237Z,78.63
2023-04-30T18:42:25.900Z,78.62
2023-04-30T18:44:52.764Z,78.94
2023-04-30T18:47:19.690Z,78.34
2023-04-30T18:49:46.306Z,78.71
2023-04-30T18:52:12.914Z,77.61
2023-04-30T18:54:41.372Z,77.42
2023-04-30T18:57:10.967Z,77.34
2023-04-30T18:59:39.140Z,77.65
2023-04-30T19:02:06.329Z,77.32
2023-04-30T19:04:32.970Z,78.38
2023-04-30T19:06:59.556Z,77.38
2023-04-30T19:09:26.169Z,77.52
2023-04-30T19:11:53.213Z,77.97
2023-04-30T19:14:19.874Z,78.20
2023-04-30T19:16:46.644Z,78.65
2023-04-30T19:19:13.910Z,78.92
2023-04-30T19:21:40.541Z,79.15
2023-04-30T19:24:07.354Z,79.17
2023-04-30T19:26:35.959Z,79.44
2023-04-30T19:29:03.454Z,79.79
2023-04-30T19:31:30.116Z,79.95
2023-04-30T19:34:00.967Z,81.69
2023-04-30T19:36:28.318Z,81.42
2023-04-30T19:38:55.608Z,81.65
2023-04-30T19:41:22.286Z,81.28
2023-04-30T19:43:49.170Z,82.73
2023-04-30T19:46:16.144Z,84.04
2023-04-30T19:48:44.701Z,83.90
2023-04-30T19:51:11.693Z,84.33
2023-04-30T19:53:38.347Z,84.22
2023-04-30T19:56:04.927Z,85.38
2023-04-30T19:58:31.574Z,84.92
2023-04-30T20:00:58.167Z,85.56
2023-04-30T20:03:25.575Z,86.34
2023-04-30T20:05:52.511Z,86.42
2023-04-30T20:08:19.116Z,86.46
2023-04-30T20:10:47.082Z,87.01
2023-04-30T20:13:13.904Z,85.79
2023-04-30T20:15:40.806Z,85.62
2023-04-30T20:18:07.519Z,86.05
2023-04-30T20:20:34.153Z,87.17
2023-04-30T20:23:14.027Z,85.38
2023-04-30T20:25:42.903Z,85.55
2023-04-30T20:28:09.482Z,85.85
2023-04-30T20:30:36.163Z,86.77
2023-04-30T20:33:03.872Z,88.15
2023-04-30T20:35:31.517Z,89.38
2023-04-30T20:37:58.158Z,89.25
2023-04-30T20:40:25.213Z,89.40
2023-04-30T20:42:52.282Z,88.79
2023-04-30T20:45:19.568Z,88.93
2023-04-30T20:47:46.571Z,89.03
2023-04-30T20:50:14.727Z,88.47
2023-04-30T20:52:41.645Z,89.50
2023-04-30T20:55:08.779Z,89.83
2023-04-30T20:57:36.493Z,89.46
2023-04-30T21:00:05.006Z,89.70
2023-04-30T21:02:31.672Z,89.21
2023-04-30T21:04:58.598Z,89.72
2023-04-30T21:07:25.212Z,89.59
2023-04-30T21:09:51.768Z,89.56
2023-04-30T21:12:18.316Z,89.94
2023-04-30T21:14:45.070Z,89.19
2023-04-30T21:17:11.702Z,89.02
2023-04-30T21:19:38.270Z,89.41
2023-04-30T21:22:05.274Z,91.98
2023-04-30T21:24:31.937Z,92.04
2023-04-30T21:27:00.079Z,92.20
2023-04-30T21:29:26.726Z,92.97
2023-04-30T21:31:55.152Z,93.97
2023-04-30T21:34:21.845Z,94.29
2023-04-30T21:36:48.399Z,95.51
2023-04-30T21:39:14.963Z,94.86
2023-04-30T21:41:41.538Z,94.11
2023-04-30T21:44:08.143Z,93.78
2023-04-30T21:46:34.775Z,94.14
2023-04-30T21:49:01.375Z,93.57
2023-04-30T21:51:27.958Z,93.30
2023-04-30T21:53:54.541Z,93.36
2023-04-30T21:56:21.803Z,94.04
2023-04-30T21:58:48.478Z,93.55
2023-04-30T22:01:15.064Z,93.42
2023-04-30T22:03:42.247Z,93.49
2023-04-30T22:06:08.965Z,93.17
2023-04-30T22:08:35.965Z,93.42
2023-04-30T22:11:04.613Z,93.21
2023-04-30T22:13:31.383Z,93.08
2023-04-30T22:15:58.076Z,93.35
2023-04-30T22:18:25.065Z,93.77
2023-04-30T22:20:52.488Z,93.74
2023-04-30T22:23:21.200Z,93.59
2023-04-30T22:25:48.305Z,93.90
2023-04-30T22:28:20.932Z,93.53
2023-04-30T22:30:47.553Z,93.67
2023-04-30T22:33:14.228Z,94.10
2023-04-30T22:35:40.965Z,93.97
2023-04-30T22:38:07.691Z,94.18
2023-04-30T22:40:37.892Z,94.27
2023-04-30T22:43:05.233Z,93.71
2023-04-30T22:45:32.832Z,93.76
2023-04-30T22:48:01.606Z,94.27
2023-04-30T22:50:30.054Z,94.34
2023-04-30T22:52:56.797Z,94.97
2023-04-30T22:55:23.560Z,94.66
2023-04-30T22:57:50.114Z,94.50
2023-04-30T23:00:18.815Z,95.55
2023-04-30T23:02:45.466Z,96.17
2023-04-30T23:05:12.978Z,95.50
2023-04-30T23:07:39.744Z,95.65
2023-04-30T23:10:07.163Z,95.21
2023-04-30T23:12:35.092Z,94.86
2023-04-30T23:15:02.082Z,95.11
2023-04-30T23:17:28.722Z,94.64
2023-04-30T23:19:55.593Z,93.78
2023-04-30T23:22:22.364Z,94.27
2023-04-30T23:24:48.924Z,94.89
2023-04-30T23:27:16.253Z,95.37
2023-04-30T23:29:43.040Z,96.14
2023-04-30T23:32:09.814Z,95.93
2023-04-30T23:34:36.408Z,95.84
2023-04-30T23:37:03.049Z,94.95
2023-04-30T23:39:29.617Z,95.05
2023-04-30T23:41:56.683Z,94.95
2023-04-30T23:44:23.250Z,94.73
2023-04-30T23:46:51.087Z,94.65
2023-04-30T23:49:17.994Z,94.72
2023-04-30T23:51:45.706Z,95.27
2023-04-30T23:54:12.314Z,95.35
2023-04-30T23:56:38.908Z,96.10
2023-04-30T23:59:05.501Z,96.44
